sensor_id;sensor_type;location;lat;lon;timestamp;P1;durP1;ratioP1;P2;durP2;ratioP2
5742;SDS011;2896;53.500;10.020;2023-06-14T00:00:31;8.00;;;3.17;;
5742;SDS011;2896;53.500;10.020;2023-06-14T00:02:59;4.63;;;3.40;;
5742;SDS011;2896;53.500;10.020;2023-06-14T00:05:25;8.70;;;3.70;;
5742;SDS011;2896;53.500;10.020;2023-06-14T00:07:54;3.50;;;3.20;;
5742;SDS011;2896;53.500;10.020;2023-06-14T00:10:21;6.10;;;3.37;;
5742;SDS011;2896;53.500;10.020;2023-06-14T00:12:49;8.73;;;3.60;;
5742;SDS011;2896;53.500;10.020;2023-06-14T00:15:15;3.77;;;3.27;;
5742;SDS011;2896;53.500;10.020;2023-06-14T00:17:42;3.17;;;2.83;;
5742;SDS011;2896;53.500;10.020;2023-06-14T00:20:12;4.87;;;3.00;;
5742;SDS011;2896;53.500;10.020;2023-06-14T00:22:39;9.07;;;3.57;;
5742;SDS011;2896;53.500;10.020;2023-06-14T00:25:06;8.10;;;3.67;;
5742;SDS011;2896;53.500;10.020;2023-06-14T00:27:33;12.87;;;3.83;;
5742;SDS011;2896;53.500;10.020;2023-06-14T00:30:01;4.50;;;3.13;;
5742;SDS011;2896;53.500;10.020;2023-06-14T00:32:27;8.10;;;3.50;;
5742;SDS011;2896;53.500;10.020;2023-06-14T00:34:54;7.70;;;3.43;;
5742;SDS011;2896;53.500;10.020;2023-06-14T00:37:21;9.40;;;4.00;;
5742;SDS011;2896;53.500;10.020;2023-06-14T00:39:48;10.77;;;3.00;;
5742;SDS011;2896;53.500;10.020;2023-06-14T00:42:22;4.47;;;3.83;;
5742;SDS011;2896;53.500;10.020;2023-06-14T00:44:50;6.27;;;3.27;;
5742;SDS011;2896;53.500;10.020;2023-06-14T00:47:18;6.90;;;3.60;;
5742;SDS011;2896;53.500;10.020;2023-06-14T00:49:45;8.60;;;3.37;;
5742;SDS011;2896;53.500;10.020;2023-06-14T00:52:12;3.37;;;3.07;;
5742;SDS011;2896;53.500;10.020;2023-06-14T00:54:39;4.30;;;3.70;;
5742;SDS011;2896;53.500;10.020;2023-06-14T00:57:06;3.70;;;3.37;;
5742;SDS011;2896;53.500;10.020;2023-06-14T00:59:33;5.90;;;3.30;;
5742;SDS011;2896;53.500;10.020;2023-06-14T01:02:02;3.20;;;2.90;;
5742;SDS011;2896;53.500;10.020;2023-06-14T01:04:30;7.90;;;3.53;;
5742;SDS011;2896;53.500;10.020;2023-06-14T01:06:58;7.93;;;3.47;;
5742;SDS011;2896;53.500;10.020;2023-06-14T01:09:46;3.77;;;3.57;;
5742;SDS011;2896;53.500;10.020;2023-06-14T01:12:21;5.00;;;3.63;;
5742;SDS011;2896;53.500;10.020;2023-06-14T01:14:51;4.43;;;3.37;;
5742;SDS011;2896;53.500;10.020;2023-06-14T01:17:21;5.57;;;3.40;;
5742;SDS011;2896;53.500;10.020;2023-06-14T01:19:50;6.13;;;3.93;;
5742;SDS011;2896;53.500;10.020;2023-06-14T01:22:22;5.27;;;3.70;;
5742;SDS011;2896;53.500;10.020;2023-06-14T01:24:51;8.90;;;3.73;;
5742;SDS011;2896;53.500;10.020;2023-06-14T01:27:20;5.63;;;3.07;;
5742;SDS011;2896;53.500;10.020;2023-06-14T01:29:48;4.07;;;3.50;;
5742;SDS011;2896;53.500;10.020;2023-06-14T01:32:16;3.47;;;3.27;;
5742;SDS011;2896;53.500;10.020;2023-06-14T01:34:44;3.77;;;3.57;;
5742;SDS011;2896;53.500;10.020;2023-06-14T01:37:11;3.57;;;3.03;;
5742;SDS011;2896;53.500;10.020;2023-06-14T01:39:38;3.57;;;3.03;;
5742;SDS011;2896;53.500;10.020;2023-06-14T01:42:07;5.33;;;3.83;;
5742;SDS011;2896;53.500;10.020;2023-06-14T01:44:34;4.50;;;3.67;;
5742;SDS011;2896;53.500;10.020;2023-06-14T01:47:01;6.93;;;3.73;;
5742;SDS011;2896;53.500;10.020;2023-06-14T01:49:27;7.70;;;3.30;;
5742;SDS011;2896;53.500;10.020;2023-06-14T01:51:54;3.43;;;3.10;;
5742;SDS011;2896;53.500;10.020;2023-06-14T01:54:21;6.63;;;3.93;;
5742;SDS011;2896;53.500;10.020;2023-06-14T01:56:47;11.63;;;3.40;;
5742;SDS011;2896;53.500;10.020;2023-06-14T01:59:15;4.33;;;3.53;;
5742;SDS011;2896;53.500;10.020;2023-06-14T02:01:42;3.17;;;2.97;;
5742;SDS011;2896;53.500;10.020;2023-06-14T02:04:09;3.97;;;3.57;;
5742;SDS011;2896;53.500;10.020;2023-06-14T02:06:35;3.70;;;3.30;;
5742;SDS011;2896;53.500;10.020;2023-06-14T02:09:02;3.93;;;3.53;;
5742;SDS011;2896;53.500;10.020;2023-06-14T02:11:29;3.90;;;3.57;;
5742;SDS011;2896;53.500;10.020;2023-06-14T02:13:55;3.50;;;3.20;;
5742;SDS011;2896;53.500;10.020;2023-06-14T02:16:26;4.00;;;3.60;;
5742;SDS011;2896;53.500;10.020;2023-06-14T02:18:54;4.07;;;3.10;;
5742;SDS011;2896;53.500;10.020;2023-06-14T02:21:21;8.10;;;3.57;;
5742;SDS011;2896;53.500;10.020;2023-06-14T02:23:48;3.67;;;3.40;;
5742;SDS011;2896;53.500;10.020;2023-06-14T02:26:15;4.70;;;3.33;;
5742;SDS011;2896;53.500;10.020;2023-06-14T02:28:41;3.97;;;3.67;;
5742;SDS011;2896;53.500;10.020;2023-06-14T02:31:08;3.73;;;3.50;;
5742;SDS011;2896;53.500;10.020;2023-06-14T02:33:37;7.80;;;3.80;;
5742;SDS011;2896;53.500;10.020;2023-06-14T02:36:03;5.03;;;3.80;;
5742;SDS011;2896;53.500;10.020;2023-06-14T02:38:30;6.10;;;4.70;;
5742;SDS011;2896;53.500;10.020;2023-06-14T02:40:57;8.00;;;4.37;;
5742;SDS011;2896;53.500;10.020;2023-06-14T02:43:26;7.00;;;3.83;;
5742;SDS011;2896;53.500;10.020;2023-06-14T02:45:54;11.13;;;4.70;;
5742;SDS011;2896;53.500;10.020;2023-06-14T02:48:21;5.43;;;4.60;;
5742;SDS011;2896;53.500;10.020;2023-06-14T02:50:49;8.73;;;4.60;;
5742;SDS011;2896;53.500;10.020;2023-06-14T02:53:16;5.60;;;4.10;;
5742;SDS011;2896;53.500;10.020;2023-06-14T02:55:43;5.20;;;4.10;;
5742;SDS011;2896;53.500;10.020;2023-06-14T02:58:09;4.77;;;4.20;;
5742;SDS011;2896;53.500;10.020;2023-06-14T03:00:36;8.87;;;3.73;;
5742;SDS011;2896;53.500;10.020;2023-06-14T03:03:03;7.60;;;4.57;;
5742;SDS011;2896;53.500;10.020;2023-06-14T03:05:37;6.43;;;4.33;;
5742;SDS011;2896;53.500;10.020;2023-06-14T03:08:07;9.37;;;4.67;;
5742;SDS011;2896;53.500;10.020;2023-06-14T03:10:33;7.13;;;4.07;;
5742;SDS011;2896;53.500;10.020;2023-06-14T03:13:00;4.90;;;4.40;;
5742;SDS011;2896;53.500;10.020;2023-06-14T03:15:27;6.20;;;4.50;;
5742;SDS011;2896;53.500;10.020;2023-06-14T03:17:54;5.03;;;4.10;;
5742;SDS011;2896;53.500;10.020;2023-06-14T03:20:21;6.23;;;4.20;;
5742;SDS011;2896;53.500;10.020;2023-06-14T03:22:48;7.03;;;4.30;;
5742;SDS011;2896;53.500;10.020;2023-06-14T03:25:17;14.30;;;4.57;;
5742;SDS011;2896;53.500;10.020;2023-06-14T03:27:43;6.37;;;4.50;;
5742;SDS011;2896;53.500;10.020;2023-06-14T03:30:10;11.57;;;5.27;;
5742;SDS011;2896;53.500;10.020;2023-06-14T03:32:37;8.70;;;4.90;;
5742;SDS011;2896;53.500;10.020;2023-06-14T03:35:04;10.27;;;4.90;;
5742;SDS011;2896;53.500;10.020;2023-06-14T03:37:32;6.93;;;5.30;;
5742;SDS011;2896;53.500;10.020;2023-06-14T03:39:58;10.20;;;4.90;;
5742;SDS011;2896;53.500;10.020;2023-06-14T03:42:27;11.20;;;5.10;;
5742;SDS011;2896;53.500;10.020;2023-06-14T03:44:53;6.10;;;4.47;;
5742;SDS011;2896;53.500;10.020;2023-06-14T03:47:20;5.90;;;5.07;;
5742;SDS011;2896;53.500;10.020;2023-06-14T03:49:47;14.80;;;4.90;;
5742;SDS011;2896;53.500;10.020;2023-06-14T03:52:13;7.10;;;5.63;;
5742;SDS011;2896;53.500;10.020;2023-06-14T03:54:41;9.50;;;5.60;;
5742;SDS011;2896;53.500;10.020;2023-06-14T03:57:09;12.67;;;5.23;;
5742;SDS011;2896;53.500;10.020;2023-06-14T03:59:37;6.87;;;5.00;;
5742;SDS011;2896;53.500;10.020;2023-06-14T04:02:04;5.27;;;4.77;;
5742;SDS011;2896;53.500;10.020;2023-06-14T04:04:32;9.80;;;5.10;;
5742;SDS011;2896;53.500;10.020;2023-06-14T04:07:00;6.33;;;5.10;;
5742;SDS011;2896;53.500;10.020;2023-06-14T04:09:28;8.07;;;5.60;;
5742;SDS011;2896;53.500;10.020;2023-06-14T04:11:55;14.40;;;5.90;;
5742;SDS011;2896;53.500;10.020;2023-06-14T04:14:22;9.50;;;5.43;;
5742;SDS011;2896;53.500;10.020;2023-06-14T04:16:50;9.07;;;4.80;;
5742;SDS011;2896;53.500;10.020;2023-06-14T04:19:16;8.90;;;5.70;;
5742;SDS011;2896;53.500;10.020;2023-06-14T04:21:43;7.83;;;5.30;;
5742;SDS011;2896;53.500;10.020;2023-06-14T04:24:10;12.73;;;5.03;;
5742;SDS011;2896;53.500;10.020;2023-06-14T04:26:38;11.13;;;5.10;;
5742;SDS011;2896;53.500;10.020;2023-06-14T04:29:05;8.20;;;5.30;;
5742;SDS011;2896;53.500;10.020;2023-06-14T04:31:32;17.10;;;5.50;;
5742;SDS011;2896;53.500;10.020;2023-06-14T04:34:03;6.40;;;4.80;;
5742;SDS011;2896;53.500;10.020;2023-06-14T04:36:31;27.37;;;5.27;;
5742;SDS011;2896;53.500;10.020;2023-06-14T04:38:59;12.17;;;5.27;;
5742;SDS011;2896;53.500;10.020;2023-06-14T04:41:28;7.63;;;5.10;;
5742;SDS011;2896;53.500;10.020;2023-06-14T04:43:56;6.50;;;4.80;;
5742;SDS011;2896;53.500;10.020;2023-06-14T04:46:26;14.27;;;4.80;;
5742;SDS011;2896;53.500;10.020;2023-06-14T04:48:53;11.30;;;4.70;;
5742;SDS011;2896;53.500;10.020;2023-06-14T04:51:21;12.00;;;5.53;;
5742;SDS011;2896;53.500;10.020;2023-06-14T04:53:54;7.47;;;4.77;;
5742;SDS011;2896;53.500;10.020;2023-06-14T04:56:21;10.70;;;5.63;;
5742;SDS011;2896;53.500;10.020;2023-06-14T04:58:50;8.20;;;4.77;;
5742;SDS011;2896;53.500;10.020;2023-06-14T05:01:16;19.33;;;5.13;;
5742;SDS011;2896;53.500;10.020;2023-06-14T05:03:43;9.73;;;5.77;;
5742;SDS011;2896;53.500;10.020;2023-06-14T05:06:10;13.00;;;5.10;;
5742;SDS011;2896;53.500;10.020;2023-06-14T05:08:38;13.60;;;5.33;;
5742;SDS011;2896;53.500;10.020;2023-06-14T05:11:05;10.00;;;5.57;;
5742;SDS011;2896;53.500;10.020;2023-06-14T05:13:32;7.87;;;5.00;;
5742;SDS011;2896;53.500;10.020;2023-06-14T05:15:59;14.37;;;5.30;;
5742;SDS011;2896;53.500;10.020;2023-06-14T05:18:26;11.10;;;4.97;;
5742;SDS011;2896;53.500;10.020;2023-06-14T05:20:53;10.17;;;5.23;;
5742;SDS011;2896;53.500;10.020;2023-06-14T05:23:19;8.63;;;4.53;;
5742;SDS011;2896;53.500;10.020;2023-06-14T05:25:47;9.97;;;4.80;;
5742;SDS011;2896;53.500;10.020;2023-06-14T05:28:14;9.97;;;4.87;;
5742;SDS011;2896;53.500;10.020;2023-06-14T05:30:41;11.90;;;4.60;;
5742;SDS011;2896;53.500;10.020;2023-06-14T05:33:08;14.93;;;4.50;;
5742;SDS011;2896;53.500;10.020;2023-06-14T05:35:35;9.70;;;5.00;;
5742;SDS011;2896;53.500;10.020;2023-06-14T05:38:03;12.33;;;4.43;;
5742;SDS011;2896;53.500;10.020;2023-06-14T05:40:29;6.60;;;4.20;;
5742;SDS011;2896;53.500;10.020;2023-06-14T05:42:57;5.67;;;4.47;;
5742;SDS011;2896;53.500;10.020;2023-06-14T05:45:24;6.83;;;4.50;;
5742;SDS011;2896;53.500;10.020;2023-06-14T05:47:51;5.40;;;4.90;;
5742;SDS011;2896;53.500;10.020;2023-06-14T05:50:19;5.60;;;4.20;;
5742;SDS011;2896;53.500;10.020;2023-06-14T05:52:46;8.80;;;4.40;;
5742;SDS011;2896;53.500;10.020;2023-06-14T05:55:12;6.30;;;4.03;;
5742;SDS011;2896;53.500;10.020;2023-06-14T05:57:39;10.50;;;4.50;;
5742;SDS011;2896;53.500;10.020;2023-06-14T06:00:08;6.13;;;4.20;;
5742;SDS011;2896;53.500;10.020;2023-06-14T06:02:39;9.70;;;5.23;;
5742;SDS011;2896;53.500;10.020;2023-06-14T06:05:06;5.97;;;4.40;;
5742;SDS011;2896;53.500;10.020;2023-06-14T06:07:33;7.67;;;4.17;;
5742;SDS011;2896;53.500;10.020;2023-06-14T06:10:00;6.00;;;4.17;;
5742;SDS011;2896;53.500;10.020;2023-06-14T06:12:26;12.50;;;4.63;;
5742;SDS011;2896;53.500;10.020;2023-06-14T06:14:53;4.50;;;4.20;;
5742;SDS011;2896;53.500;10.020;2023-06-14T06:17:22;9.63;;;4.70;;
5742;SDS011;2896;53.500;10.020;2023-06-14T06:19:49;8.17;;;4.13;;
5742;SDS011;2896;53.500;10.020;2023-06-14T06:22:15;8.30;;;4.77;;
5742;SDS011;2896;53.500;10.020;2023-06-14T06:24:42;8.37;;;4.03;;
5742;SDS011;2896;53.500;10.020;2023-06-14T06:27:08;7.43;;;4.30;;
5742;SDS011;2896;53.500;10.020;2023-06-14T06:29:35;7.03;;;4.00;;
5742;SDS011;2896;53.500;10.020;2023-06-14T06:32:02;16.13;;;4.43;;
5742;SDS011;2896;53.500;10.020;2023-06-14T06:34:30;6.50;;;4.13;;
5742;SDS011;2896;53.500;10.020;2023-06-14T06:36:57;5.13;;;4.60;;
5742;SDS011;2896;53.500;10.020;2023-06-14T06:39:24;13.30;;;4.27;;
5742;SDS011;2896;53.500;10.020;2023-06-14T06:41:51;5.27;;;3.70;;
5742;SDS011;2896;53.500;10.020;2023-06-14T06:44:18;4.87;;;3.63;;
5742;SDS011;2896;53.500;10.020;2023-06-14T06:46:44;4.63;;;3.37;;
5742;SDS011;2896;53.500;10.020;2023-06-14T06:49:11;6.87;;;3.53;;
5742;SDS011;2896;53.500;10.020;2023-06-14T06:51:41;4.03;;;3.67;;
5742;SDS011;2896;53.500;10.020;2023-06-14T06:54:08;4.20;;;3.90;;
5742;SDS011;2896;53.500;10.020;2023-06-14T06:56:35;5.90;;;3.50;;
5742;SDS011;2896;53.500;10.020;2023-06-14T06:59:02;6.50;;;3.40;;
5742;SDS011;2896;53.500;10.020;2023-06-14T07:01:28;5.13;;;3.53;;
5742;SDS011;2896;53.500;10.020;2023-06-14T07:03:55;4.30;;;3.90;;
5742;SDS011;2896;53.500;10.020;2023-06-14T07:06:22;3.90;;;3.63;;
5742;SDS011;2896;53.500;10.020;2023-06-14T07:08:53;11.50;;;3.40;;
5742;SDS011;2896;53.500;10.020;2023-06-14T07:11:20;8.83;;;3.93;;
5742;SDS011;2896;53.500;10.020;2023-06-14T07:13:46;3.60;;;3.37;;
5742;SDS011;2896;53.500;10.020;2023-06-14T07:16:13;3.70;;;3.37;;
5742;SDS011;2896;53.500;10.020;2023-06-14T07:18:40;3.80;;;2.77;;
5742;SDS011;2896;53.500;10.020;2023-06-14T07:21:06;5.80;;;2.90;;
5742;SDS011;2896;53.500;10.020;2023-06-14T07:23:33;4.43;;;3.27;;
5742;SDS011;2896;53.500;10.020;2023-06-14T07:26:01;5.30;;;3.40;;
5742;SDS011;2896;53.500;10.020;2023-06-14T07:28:28;3.80;;;3.07;;
5742;SDS011;2896;53.500;10.020;2023-06-14T07:30:55;3.03;;;2.83;;
5742;SDS011;2896;53.500;10.020;2023-06-14T07:33:22;2.57;;;2.47;;
5742;SDS011;2896;53.500;10.020;2023-06-14T07:35:48;3.27;;;3.07;;
5742;SDS011;2896;53.500;10.020;2023-06-14T07:38:16;11.53;;;3.40;;
5742;SDS011;2896;53.500;10.020;2023-06-14T07:40:43;3.63;;;2.93;;
5742;SDS011;2896;53.500;10.020;2023-06-14T07:43:11;7.73;;;2.70;;
5742;SDS011;2896;53.500;10.020;2023-06-14T07:45:38;3.00;;;2.80;;
5742;SDS011;2896;53.500;10.020;2023-06-14T07:48:05;2.97;;;2.77;;
5742;SDS011;2896;53.500;10.020;2023-06-14T07:50:31;2.30;;;2.20;;
5742;SDS011;2896;53.500;10.020;2023-06-14T07:52:58;6.07;;;3.00;;
5742;SDS011;2896;53.500;10.020;2023-06-14T07:55:25;3.97;;;2.90;;
5742;SDS011;2896;53.500;10.020;2023-06-14T07:57:51;2.93;;;2.83;;
5742;SDS011;2896;53.500;10.020;2023-06-14T08:00:20;4.33;;;2.90;;
5742;SDS011;2896;53.500;10.020;2023-06-14T08:02:47;2.73;;;2.63;;
5742;SDS011;2896;53.500;10.020;2023-06-14T08:05:13;4.83;;;4.03;;
5742;SDS011;2896;53.500;10.020;2023-06-14T08:07:40;5.70;;;2.53;;
5742;SDS011;2896;53.500;10.020;2023-06-14T08:10:07;6.30;;;2.93;;
5742;SDS011;2896;53.500;10.020;2023-06-14T08:12:34;2.80;;;2.60;;
5742;SDS011;2896;53.500;10.020;2023-06-14T08:15:03;3.13;;;2.83;;
5742;SDS011;2896;53.500;10.020;2023-06-14T08:17:31;5.43;;;2.63;;
5742;SDS011;2896;53.500;10.020;2023-06-14T08:19:58;4.70;;;3.10;;
5742;SDS011;2896;53.500;10.020;2023-06-14T08:22:24;3.60;;;2.83;;
5742;SDS011;2896;53.500;10.020;2023-06-14T08:24:53;7.33;;;2.60;;
5742;SDS011;2896;53.500;10.020;2023-06-14T08:27:19;6.50;;;3.20;;
5742;SDS011;2896;53.500;10.020;2023-06-14T08:29:47;3.83;;;3.03;;
5742;SDS011;2896;53.500;10.020;2023-06-14T08:32:13;7.27;;;2.50;;
5742;SDS011;2896;53.500;10.020;2023-06-14T08:34:41;5.03;;;3.40;;
5742;SDS011;2896;53.500;10.020;2023-06-14T08:37:08;5.20;;;2.90;;
5742;SDS011;2896;53.500;10.020;2023-06-14T08:39:34;6.50;;;3.27;;
5742;SDS011;2896;53.500;10.020;2023-06-14T08:42:02;6.03;;;3.17;;
5742;SDS011;2896;53.500;10.020;2023-06-14T08:44:31;3.00;;;2.80;;
5742;SDS011;2896;53.500;10.020;2023-06-14T08:46:57;6.07;;;3.67;;
5742;SDS011;2896;53.500;10.020;2023-06-14T08:49:25;5.00;;;2.70;;
5742;SDS011;2896;53.500;10.020;2023-06-14T08:51:56;6.57;;;3.20;;
5742;SDS011;2896;53.500;10.020;2023-06-14T08:54:24;4.23;;;3.47;;
5742;SDS011;2896;53.500;10.020;2023-06-14T08:56:54;8.60;;;3.20;;
5742;SDS011;2896;53.500;10.020;2023-06-14T08:59:22;2.80;;;2.60;;
5742;SDS011;2896;53.500;10.020;2023-06-14T09:01:50;7.97;;;3.40;;
5742;SDS011;2896;53.500;10.020;2023-06-14T09:04:17;9.37;;;3.03;;
5742;SDS011;2896;53.500;10.020;2023-06-14T09:06:44;5.10;;;2.90;;
5742;SDS011;2896;53.500;10.020;2023-06-14T09:09:12;3.50;;;3.20;;
5742;SDS011;2896;53.500;10.020;2023-06-14T09:11:41;11.13;;;3.30;;
5742;SDS011;2896;53.500;10.020;2023-06-14T09:14:08;6.63;;;3.60;;
5742;SDS011;2896;53.500;10.020;2023-06-14T09:16:35;6.03;;;2.80;;
5742;SDS011;2896;53.500;10.020;2023-06-14T09:19:02;9.60;;;3.93;;
5742;SDS011;2896;53.500;10.020;2023-06-14T09:21:29;6.73;;;3.40;;
5742;SDS011;2896;53.500;10.020;2023-06-14T09:24:01;16.13;;;3.40;;
5742;SDS011;2896;53.500;10.020;2023-06-14T09:26:29;4.50;;;2.87;;
5742;SDS011;2896;53.500;10.020;2023-06-14T09:28:55;3.50;;;3.17;;
5742;SDS011;2896;53.500;10.020;2023-06-14T09:31:22;13.60;;;3.53;;
5742;SDS011;2896;53.500;10.020;2023-06-14T09:33:49;8.00;;;3.20;;
5742;SDS011;2896;53.500;10.020;2023-06-14T09:36:16;14.43;;;3.60;;
5742;SDS011;2896;53.500;10.020;2023-06-14T09:38:51;15.20;;;3.40;;
5742;SDS011;2896;53.500;10.020;2023-06-14T09:41:19;10.33;;;3.43;;
5742;SDS011;2896;53.500;10.020;2023-06-14T09:43:47;7.53;;;3.03;;
5742;SDS011;2896;53.500;10.020;2023-06-14T09:46:15;5.57;;;3.60;;
5742;SDS011;2896;53.500;10.020;2023-06-14T09:48:42;5.37;;;3.37;;
5742;SDS011;2896;53.500;10.020;2023-06-14T09:51:09;11.73;;;3.50;;
5742;SDS011;2896;53.500;10.020;2023-06-14T09:53:39;9.57;;;3.70;;
5742;SDS011;2896;53.500;10.020;2023-06-14T09:56:08;6.87;;;3.67;;
5742;SDS011;2896;53.500;10.020;2023-06-14T09:58:37;9.60;;;3.93;;
5742;SDS011;2896;53.500;10.020;2023-06-14T10:01:08;7.50;;;3.57;;
5742;SDS011;2896;53.500;10.020;2023-06-14T10:03:38;3.47;;;3.10;;
5742;SDS011;2896;53.500;10.020;2023-06-14T10:06:06;8.73;;;3.17;;
5742;SDS011;2896;53.500;10.020;2023-06-14T10:08:35;6.93;;;3.50;;
5742;SDS011;2896;53.500;10.020;2023-06-14T10:11:03;6.57;;;3.20;;
5742;SDS011;2896;53.500;10.020;2023-06-14T10:13:31;4.07;;;3.30;;
5742;SDS011;2896;53.500;10.020;2023-06-14T10:16:00;8.60;;;3.33;;
5742;SDS011;2896;53.500;10.020;2023-06-14T10:18:36;5.33;;;3.70;;
5742;SDS011;2896;53.500;10.020;2023-06-14T10:21:11;11.63;;;3.93;;
5742;SDS011;2896;53.500;10.020;2023-06-14T10:23:43;15.83;;;4.03;;
5742;SDS011;2896;53.500;10.020;2023-06-14T10:26:17;4.20;;;3.23;;
5742;SDS011;2896;53.500;10.020;2023-06-14T10:28:55;9.97;;;3.43;;
5742;SDS011;2896;53.500;10.020;2023-06-14T10:31:23;6.13;;;3.10;;
5742;SDS011;2896;53.500;10.020;2023-06-14T10:34:07;11.50;;;3.53;;
5742;SDS011;2896;53.500;10.020;2023-06-14T10:36:34;12.00;;;3.87;;
5742;SDS011;2896;53.500;10.020;2023-06-14T10:39:05;7.93;;;3.33;;
5742;SDS011;2896;53.500;10.020;2023-06-14T10:41:35;10.33;;;3.53;;
5742;SDS011;2896;53.500;10.020;2023-06-14T10:46:58;7.00;;;3.73;;
5742;SDS011;2896;53.500;10.020;2023-06-14T10:49:41;4.77;;;4.17;;
5742;SDS011;2896;53.500;10.020;2023-06-14T10:52:09;12.60;;;3.17;;
5742;SDS011;2896;53.500;10.020;2023-06-14T10:54:59;3.77;;;3.57;;
5742;SDS011;2896;53.500;10.020;2023-06-14T10:57:36;16.83;;;3.43;;
5742;SDS011;2896;53.500;10.020;2023-06-14T11:00:05;8.43;;;3.27;;
5742;SDS011;2896;53.500;10.020;2023-06-14T11:02:46;12.30;;;3.87;;
5742;SDS011;2896;53.500;10.020;2023-06-14T11:05:23;9.60;;;3.93;;
5742;SDS011;2896;53.500;10.020;2023-06-14T11:07:58;7.00;;;3.53;;
5742;SDS011;2896;53.500;10.020;2023-06-14T11:10:37;6.20;;;3.37;;
5742;SDS011;2896;53.500;10.020;2023-06-14T11:13:04;6.63;;;3.63;;
5742;SDS011;2896;53.500;10.020;2023-06-14T11:15:32;3.33;;;3.03;;
5742;SDS011;2896;53.500;10.020;2023-06-14T11:18:00;7.83;;;3.60;;
5742;SDS011;2896;53.500;10.020;2023-06-14T11:20:30;10.33;;;3.43;;
5742;SDS011;2896;53.500;10.020;2023-06-14T11:22:58;17.90;;;4.00;;
5742;SDS011;2896;53.500;10.020;2023-06-14T11:25:25;12.40;;;3.20;;
5742;SDS011;2896;53.500;10.020;2023-06-14T11:27:53;5.63;;;3.80;;
5742;SDS011;2896;53.500;10.020;2023-06-14T11:30:20;3.27;;;2.90;;
5742;SDS011;2896;53.500;10.020;2023-06-14T11:32:46;4.50;;;3.27;;
5742;SDS011;2896;53.500;10.020;2023-06-14T11:35:14;3.57;;;3.17;;
5742;SDS011;2896;53.500;10.020;2023-06-14T11:37:42;3.83;;;3.00;;
5742;SDS011;2896;53.500;10.020;2023-06-14T11:40:11;3.50;;;3.20;;
5742;SDS011;2896;53.500;10.020;2023-06-14T11:42:38;5.00;;;3.27;;
5742;SDS011;2896;53.500;10.020;2023-06-14T11:45:07;5.50;;;3.07;;
5742;SDS011;2896;53.500;10.020;2023-06-14T11:47:35;8.17;;;3.30;;
5742;SDS011;2896;53.500;10.020;2023-06-14T11:50:03;11.40;;;3.23;;
5742;SDS011;2896;53.500;10.020;2023-06-14T11:52:31;14.10;;;3.27;;
5742;SDS011;2896;53.500;10.020;2023-06-14T11:55:00;5.83;;;3.20;;
5742;SDS011;2896;53.500;10.020;2023-06-14T11:57:29;4.10;;;3.80;;
5742;SDS011;2896;53.500;10.020;2023-06-14T11:59:56;3.70;;;3.40;;
5742;SDS011;2896;53.500;10.020;2023-06-14T12:02:23;6.80;;;3.73;;
5742;SDS011;2896;53.500;10.020;2023-06-14T12:04:52;4.97;;;3.63;;
5742;SDS011;2896;53.500;10.020;2023-06-14T12:07:19;10.60;;;3.13;;
5742;SDS011;2896;53.500;10.020;2023-06-14T12:12:34;8.87;;;3.40;;
5742;SDS011;2896;53.500;10.020;2023-06-14T12:15:03;4.40;;;3.13;;
5742;SDS011;2896;53.500;10.020;2023-06-14T12:17:31;8.60;;;3.10;;
5742;SDS011;2896;53.500;10.020;2023-06-14T12:19:58;4.67;;;3.60;;
5742;SDS011;2896;53.500;10.020;2023-06-14T12:22:25;5.70;;;4.00;;
5742;SDS011;2896;53.500;10.020;2023-06-14T12:24:55;10.10;;;4.07;;
5742;SDS011;2896;53.500;10.020;2023-06-14T12:27:23;4.07;;;3.37;;
5742;SDS011;2896;53.500;10.020;2023-06-14T12:29:58;9.00;;;3.40;;
5742;SDS011;2896;53.500;10.020;2023-06-14T12:32:25;6.73;;;3.70;;
5742;SDS011;2896;53.500;10.020;2023-06-14T12:34:52;4.40;;;3.70;;
5742;SDS011;2896;53.500;10.020;2023-06-14T12:37:18;8.97;;;3.23;;
5742;SDS011;2896;53.500;10.020;2023-06-14T12:39:45;11.40;;;3.67;;
5742;SDS011;2896;53.500;10.020;2023-06-14T12:42:11;4.83;;;3.53;;
5742;SDS011;2896;53.500;10.020;2023-06-14T12:44:40;5.33;;;3.50;;
5742;SDS011;2896;53.500;10.020;2023-06-14T12:47:07;3.20;;;2.87;;
5742;SDS011;2896;53.500;10.020;2023-06-14T12:49:34;8.53;;;3.10;;
5742;SDS011;2896;53.500;10.020;2023-06-14T12:52:01;5.77;;;3.40;;
5742;SDS011;2896;53.500;10.020;2023-06-14T12:54:28;5.50;;;3.13;;
5742;SDS011;2896;53.500;10.020;2023-06-14T12:56:54;9.10;;;3.40;;
5742;SDS011;2896;53.500;10.020;2023-06-14T12:59:21;6.40;;;3.90;;
5742;SDS011;2896;53.500;10.020;2023-06-14T13:01:49;7.43;;;3.67;;
5742;SDS011;2896;53.500;10.020;2023-06-14T13:04:18;8.07;;;4.10;;
5742;SDS011;2896;53.500;10.020;2023-06-14T13:06:45;16.20;;;5.80;;
5742;SDS011;2896;53.500;10.020;2023-06-14T13:09:12;3.53;;;3.13;;
5742;SDS011;2896;53.500;10.020;2023-06-14T13:11:40;6.17;;;3.23;;
5742;SDS011;2896;53.500;10.020;2023-06-14T13:14:10;5.30;;;3.17;;
5742;SDS011;2896;53.500;10.020;2023-06-14T13:16:37;7.20;;;3.60;;
5742;SDS011;2896;53.500;10.020;2023-06-14T13:19:05;6.60;;;3.37;;
5742;SDS011;2896;53.500;10.020;2023-06-14T13:21:31;3.37;;;3.17;;
5742;SDS011;2896;53.500;10.020;2023-06-14T13:23:58;7.10;;;3.00;;
5742;SDS011;2896;53.500;10.020;2023-06-14T13:26:25;7.73;;;3.13;;
5742;SDS011;2896;53.500;10.020;2023-06-14T13:28:52;8.93;;;3.20;;
5742;SDS011;2896;53.500;10.020;2023-06-14T13:31:18;11.40;;;3.60;;
5742;SDS011;2896;53.500;10.020;2023-06-14T13:33:45;6.10;;;3.50;;
5742;SDS011;2896;53.500;10.020;2023-06-14T13:36:13;4.30;;;2.83;;
5742;SDS011;2896;53.500;10.020;2023-06-14T13:38:40;4.90;;;3.37;;
5742;SDS011;2896;53.500;10.020;2023-06-14T13:41:06;11.90;;;3.20;;
5742;SDS011;2896;53.500;10.020;2023-06-14T13:43:33;10.00;;;3.50;;
5742;SDS011;2896;53.500;10.020;2023-06-14T13:45:59;7.30;;;2.93;;
5742;SDS011;2896;53.500;10.020;2023-06-14T13:48:26;7.60;;;3.53;;
5742;SDS011;2896;53.500;10.020;2023-06-14T13:50:53;12.77;;;3.73;;
5742;SDS011;2896;53.500;10.020;2023-06-14T13:53:21;8.23;;;3.70;;
5742;SDS011;2896;53.500;10.020;2023-06-14T13:55:47;5.33;;;3.10;;
5742;SDS011;2896;53.500;10.020;2023-06-14T13:58:14;6.17;;;3.57;;
5742;SDS011;2896;53.500;10.020;2023-06-14T14:00:41;5.40;;;3.17;;
5742;SDS011;2896;53.500;10.020;2023-06-14T14:03:07;5.30;;;4.07;;
5742;SDS011;2896;53.500;10.020;2023-06-14T14:05:34;12.40;;;3.13;;
5742;SDS011;2896;53.500;10.020;2023-06-14T14:08:01;5.13;;;3.40;;
5742;SDS011;2896;53.500;10.020;2023-06-14T14:10:30;7.40;;;3.30;;
5742;SDS011;2896;53.500;10.020;2023-06-14T14:12:56;5.47;;;3.43;;
5742;SDS011;2896;53.500;10.020;2023-06-14T14:15:23;9.80;;;3.90;;
5742;SDS011;2896;53.500;10.020;2023-06-14T14:17:50;8.80;;;3.40;;
5742;SDS011;2896;53.500;10.020;2023-06-14T14:20:18;4.03;;;3.20;;
5742;SDS011;2896;53.500;10.020;2023-06-14T14:22:45;7.43;;;2.57;;
5742;SDS011;2896;53.500;10.020;2023-06-14T14:25:12;3.27;;;3.07;;
5742;SDS011;2896;53.500;10.020;2023-06-14T14:27:40;10.50;;;3.47;;
5742;SDS011;2896;53.500;10.020;2023-06-14T14:30:07;8.13;;;3.07;;
5742;SDS011;2896;53.500;10.020;2023-06-14T14:32:34;5.70;;;3.63;;
5742;SDS011;2896;53.500;10.020;2023-06-14T14:35:01;6.87;;;5.90;;
5742;SDS011;2896;53.500;10.020;2023-06-14T14:37:27;11.63;;;4.10;;
5742;SDS011;2896;53.500;10.020;2023-06-14T14:39:54;12.07;;;3.20;;
5742;SDS011;2896;53.500;10.020;2023-06-14T14:42:20;7.03;;;3.43;;
5742;SDS011;2896;53.500;10.020;2023-06-14T14:44:48;10.73;;;3.30;;
5742;SDS011;2896;53.500;10.020;2023-06-14T14:47:15;14.10;;;3.13;;
5742;SDS011;2896;53.500;10.020;2023-06-14T14:49:41;4.90;;;2.90;;
5742;SDS011;2896;53.500;10.020;2023-06-14T14:52:08;12.07;;;2.90;;
5742;SDS011;2896;53.500;10.020;2023-06-14T14:54:35;7.70;;;3.37;;
5742;SDS011;2896;53.500;10.020;2023-06-14T14:57:01;9.37;;;2.87;;
5742;SDS011;2896;53.500;10.020;2023-06-14T14:59:28;6.40;;;2.87;;
5742;SDS011;2896;53.500;10.020;2023-06-14T15:01:56;2.93;;;2.40;;
5742;SDS011;2896;53.500;10.020;2023-06-14T15:04:23;10.90;;;3.80;;
5742;SDS011;2896;53.500;10.020;2023-06-14T15:06:50;13.17;;;3.53;;